Latest Weather Observations for Kapooka (Defence)

IDN60801

Issued at 6:53 pm EDT Wednesday 29 January 2020 (issued every 10 minutes, with the page automatically refreshed every 10 minutes)

About weather observations | Map of weather stations | Latest weather observations for NSW | Other Formats
Station Details ID: 074272 Name: KAPOOKA (DEFENCE) Lat: -35.13 Lon: 147.25 Height: 187.0 m
Data from the previous 72 hours. | See also: Recent months at Kapooka (Defence)
Date/Time
EDT
Temp
°C
App
Temp
°C
Dew
Point
°C
Rel
Hum
%
Delta-T
°C
Wind Press
QNH
hPa
Press
MSL
hPa
Rain since
9am
mm
Dir  Spd
km/h
Gust
km/h
Spd
kts
Gust
kts
29/06:30pm 35.9 31.8 -0.5 10 18.1 SW 11 24 6 13 - - 0.0
29/06:00pm 36.4 32.3 -0.1 10 18.3 S 11 17 6 9 - - 0.0
29/05:30pm 36.1 31.6 -0.3 10 18.2 S 13 28 7 15 - - 0.0
29/05:00pm 36.6 33.3 0.1 10 18.4 SW 7 24 4 13 - - 0.0
29/04:30pm 37.0 31.8 0.4 10 18.6 SSW 17 24 9 13 - - 0.0
29/04:00pm 35.9 32.0 0.9 11 17.8 SW 11 24 6 13 - - 0.0
29/03:30pm 36.7 33.1 2.7 12 17.8 SW 11 20 6 11 - - 0.0
29/03:00pm 35.1 30.5 1.5 12 17.1 SW 15 30 8 16 - - 0.0
29/02:30pm 35.4 31.6 3.9 14 16.7 SSW 13 24 7 13 - - 0.0
29/02:00pm 34.2 29.5 2.9 14 16.2 SSW 17 26 9 14 - - 0.0
29/01:30pm 33.6 30.5 3.4 15 15.8 WSW 9 20 5 11 - - 0.0
29/01:00pm 32.8 29.7 3.7 16 15.2 W 9 24 5 13 - - 0.0
29/12:30pm 32.6 29.5 3.5 16 15.1 W 9 17 5 9 - - 0.0
29/12:00pm 32.3 28.6 4.2 17 14.7 SSW 13 22 7 12 - - 0.0
29/11:30am 31.9 28.8 3.8 17 14.6 SSW 9 17 5 9 - - 0.0
29/11:00am 30.5 26.5 2.7 17 14.1 SSW 13 24 7 13 - - 0.0
29/10:30am 29.6 26.9 5.6 22 12.7 SSE 9 15 5 8 - - 0.0
29/10:00am 28.3 26.7 8.1 28 11.1 SE 6 11 3 6 - - 0.0
29/09:30am 28.0 27.0 8.8 30 10.6 E 4 7 2 4 - - 0.0
29/09:00am 25.8 25.5 8.8 34 9.3 CALM 0 0 0 0 - - 0.0
29/08:30am 23.2 22.3 6.1 33 8.8 CALM 0 0 0 0 - - 0.0
29/08:00am 21.2 19.9 5.9 37 7.7 S 2 6 1 3 - - 0.0
29/07:30am 18.2 17.3 6.1 45 6.0 CALM 0 0 0 0 - - 0.0
29/07:00am 16.2 15.2 5.8 50 5.1 CALM 0 0 0 0 - - 0.0
29/06:30am 15.7 13.8 5.0 49 5.1 S 4 6 2 3 - - 0.0
29/06:00am 16.5 15.4 5.2 47 5.4 CALM 0 0 0 0 - - 0.0
29/05:30am 16.5 15.4 4.9 46 5.6 CALM 0 0 0 0 - - 0.0
29/05:00am 17.2 16.0 4.5 43 6.1 CALM 0 0 0 0 - - 0.0
29/04:30am 17.1 15.8 4.1 42 6.2 CALM 0 0 0 0 - - 0.0
29/04:00am 18.2 16.4 3.7 38 6.9 NNE 2 6 1 3 - - 0.0
29/03:30am 19.6 16.9 2.9 33 7.9 NE 6 7 3 4 - - 0.0
29/03:00am 19.6 16.5 3.7 35 7.6 S 9 11 5 6 - - 0.0
29/02:30am 20.2 17.2 3.9 34 7.9 S 9 11 5 6 - - 0.0
29/02:00am 20.1 17.4 3.8 34 7.8 SSW 7 9 4 5 - - 0.0
29/01:30am 20.9 18.7 3.6 32 8.3 S 4 6 2 3 - - 0.0
29/01:00am 21.7 20.2 2.9 29 9.0 CALM 0 0 0 0 - - 0.0
29/12:30am 23.0 20.8 3.5 28 9.5 SSW 4 7 2 4 - - 0.0
29/12:00am 24.3 21.2 3.6 26 10.2 SSW 9 13 5 7 - - 0.0
 
Date/Time
EDT
Temp
°C
App
Temp
°C
Dew
Point
°C
Rel
Hum
%
Delta-T
°C
Wind Press
QNH
hPa
Press
MSL
hPa
Rain since
9am
mm
Dir  Spd
km/h
Gust
km/h
Spd
kts
Gust
kts
28/11:30pm 24.2 21.1 3.5 26 10.2 S 9 13 5 7 - - 0.0
28/11:00pm 25.0 21.6 4.2 26 10.4 SSE 11 15 6 8 - - 0.0
28/10:30pm 25.2 22.9 5.9 29 10.0 S 7 9 4 5 - - 0.0
28/10:00pm 25.5 23.4 5.7 28 10.2 SSW 6 9 3 5 - - 0.0
28/09:30pm 26.3 24.6 5.8 27 10.7 SSW 4 6 2 3 - - 0.0
28/09:00pm 28.4 25.6 5.3 23 12.1 SW 9 13 5 7 - - 0.0
28/08:30pm 29.8 26.2 5.1 21 13.0 SW 13 17 7 9 - - 0.0
28/08:00pm 30.7 27.5 2.9 17 14.1 SW 9 17 5 9 - - 0.0
28/07:30pm 31.8 27.1 1.0 14 15.3 SW 15 24 8 13 - - 0.0
28/07:00pm 32.9 27.7 -2.7 10 16.7 SW 15 24 8 13 - - 0.0
28/06:30pm 33.8 27.9 -2.0 10 17.1 WSW 19 32 10 17 - - 0.0
28/06:00pm 34.9 29.0 -2.6 9 17.9 WSW 19 30 10 16 - - 0.0
28/05:30pm 35.2 28.5 -1.0 10 17.8 SW 24 33 13 18 - - 0.0
28/05:00pm 35.0 30.0 1.4 12 17.1 WSW 17 30 9 16 - - 0.0
28/04:30pm 34.8 29.4 1.2 12 17.0 WSW 19 30 10 16 - - 0.0
28/04:00pm 34.8 30.5 1.2 12 17.0 SW 13 30 7 16 - - 0.0
28/03:30pm 35.5 30.0 0.6 11 17.6 SW 19 32 10 17 - - 0.0
28/03:00pm 34.3 28.3 0.8 12 16.8 SW 22 35 12 19 - - 0.0
28/02:30pm 34.2 29.5 2.9 14 16.2 SW 17 26 9 14 - - 0.0
28/02:00pm 33.4 28.9 2.3 14 15.9 WSW 15 30 8 16 - - 0.0
28/01:30pm 33.3 29.6 2.2 14 15.9 SW 11 19 6 10 - - 0.0
28/01:00pm 32.6 28.2 0.6 13 15.8 WSW 13 22 7 12 - - 0.0
28/12:30pm 31.6 27.4 1.8 15 15.0 WSW 13 20 7 11 - - 0.0
28/12:00pm 31.0 26.5 2.3 16 14.5 SW 15 20 8 11 - - 0.0
28/11:30am 31.4 27.3 -0.3 13 15.3 WSW 11 20 6 11 - - 0.0
28/11:00am 31.3 29.0 2.5 16 14.6 NNW 4 11 2 6 - - 0.0
28/10:30am 28.1 26.3 5.6 24 11.8 NNW 4 7 2 4 - - 0.0
28/10:00am 27.3 25.2 5.6 25 11.3 N 6 7 3 4 - - 0.0
28/09:30am 25.4 24.0 5.6 28 10.2 N 2 6 1 3 - - 0.0
28/09:00am 23.8 22.0 5.2 30 9.4 NNE 4 6 2 3 - - 0.0
28/08:30am 22.7 21.9 6.5 35 8.4 CALM 0 0 0 0 - - 0.0
28/08:00am 20.3 19.8 8.0 45 6.4 CALM 0 0 0 0 - - 0.0
28/07:30am 17.4 16.9 8.0 54 4.8 CALM 0 0 0 0 - - 0.0
28/07:00am 15.4 14.7 10.0 70 2.8 S 4 6 2 3 - - 0.0
28/06:30am 14.6 14.3 8.5 67 3.1 CALM 0 0 0 0 - - 0.0
28/06:00am 14.8 14.2 7.6 62 3.6 CALM 0 0 0 0 - - 0.0
28/05:30am 15.8 15.2 7.6 58 4.1 CALM 0 0 0 0 - - 0.0
28/05:00am 15.9 15.2 7.1 56 4.4 CALM 0 0 0 0 - - 0.0
28/04:30am 16.5 15.9 7.2 54 4.7 CALM 0 0 0 0 - - 0.0
28/04:00am 16.9 16.3 7.5 54 4.8 CALM 0 0 0 0 - - 0.0
28/03:30am 17.1 16.5 7.5 53 4.9 CALM 0 0 0 0 - - 0.0
28/03:00am 17.6 17.1 7.9 53 5.0 CALM 0 0 0 0 - - 0.0
28/02:30am 19.3 16.8 6.4 43 6.5 S 9 9 5 5 - - 0.0
28/02:00am 19.5 17.0 8.2 48 5.9 S 11 13 6 7 - - 0.0
28/01:30am 20.3 17.8 8.0 45 6.4 SSW 11 11 6 6 - - 0.0
28/01:00am 21.2 17.9 6.3 38 7.6 S 13 13 7 7 - - 0.0
28/12:30am 22.0 18.7 6.3 36 8.0 S 13 13 7 7 - - 0.0
28/12:00am 22.3 19.7 6.1 35 8.3 S 9 11 5 6 - - 0.0
 
Date/Time
EDT
Temp
°C
App
Temp
°C
Dew
Point
°C
Rel
Hum
%
Delta-T
°C
Wind Press
QNH
hPa
Press
MSL
hPa
Rain since
9am
mm
Dir  Spd
km/h
Gust
km/h
Spd
kts
Gust
kts
27/11:30pm 24.6 21.7 6.4 31 9.5 S 11 13 6 7 - - 0.0
27/11:00pm 22.7 21.4 9.1 42 7.4 S 6 7 3 4 - - 0.0
27/10:30pm 24.6 22.5 6.8 32 9.3 SSE 7 9 4 5 - - 0.0
27/10:00pm 25.7 24.1 6.3 29 10.1 S 4 6 2 3 - - 0.0
27/09:30pm 27.2 25.3 6.6 27 10.9 SSE 6 6 3 3 - - 0.0
27/09:00pm 28.7 27.0 6.1 24 12.0 SW 4 7 2 4 - - 0.0
27/08:30pm 29.7 27.6 5.7 22 12.7 WSW 6 7 3 4 - - 0.0
27/08:00pm 32.2 29.7 4.9 18 14.5 WSW 7 9 4 5 - - 0.0
27/07:30pm 33.4 30.4 4.2 16 15.4 WSW 9 17 5 9 - - 0.0
27/07:00pm 34.8 32.0 5.3 16 16.0 WSW 9 17 5 9 - - 0.0
27/06:30pm 35.3 31.1 5.7 16 16.2 SSW 17 28 9 15 - - 0.0
27/06:00pm 35.5 31.5 4.9 15 16.5 WSW 15 30 8 16 - - 0.0
27/05:30pm 35.8 31.3 4.2 14 16.9 SW 17 28 9 15 - - 0.0
27/05:00pm 35.6 31.6 5.0 15 16.6 SW 15 28 8 15 - - 0.0
27/04:30pm 36.8 33.0 5.9 15 17.1 WSW 15 28 8 15 - - 0.0
27/04:00pm 36.4 34.3 6.6 16 16.6 WNW 7 13 4 7 - - 0.0
27/03:30pm 36.6 33.0 6.7 16 16.7 W 15 26 8 14 - - 0.0
27/03:00pm 36.0 32.7 6.2 16 16.5 SW 13 24 7 13 - - 0.0
27/02:30pm 35.2 31.2 6.5 17 15.9 WSW 17 28 9 15 - - 0.0
27/02:00pm 35.6 33.5 8.4 19 15.5 W 9 22 5 12 - - 0.0
27/01:30pm 35.1 32.4 8.8 20 15.1 WNW 13 22 7 12 - - 0.0
27/01:00pm 33.9 31.7 9.2 22 14.1 SW 11 22 6 12 - - 0.0
27/12:30pm 33.3 31.5 9.4 23 13.7 WSW 9 17 5 9 - - 0.0
27/12:00pm 32.8 31.5 11.3 27 12.7 WNW 9 17 5 9 - - 0.0
27/11:30am 31.3 30.5 11.7 30 11.5 N 7 13 4 7 - - 0.0
27/11:00am 30.4 30.1 12.8 34 10.5 NNE 6 13 3 7 - - 0.0
27/10:30am 28.8 28.6 13.5 39 9.2 N 7 13 4 7 - - 0.0
27/10:00am 28.1 26.9 12.8 38 9.0 NNE 11 17 6 9 - - 0.0
27/09:30am 27.5 26.1 13.4 41 8.4 NE 13 20 7 11 - - 0.0
27/09:00am 26.1 25.2 13.6 46 7.4 NE 11 17 6 9 - - 0.0
27/08:30am 25.3 25.5 14.1 50 6.7 NNE 6 11 3 6 - - 0.0
27/08:00am 23.8 24.4 14.2 55 5.7 NE 4 9 2 5 - - 0.0
27/07:30am 20.1 20.1 12.3 61 4.4 NNW 4 6 2 3 - - 0.0
27/07:00am 17.5 18.1 11.8 69 3.1 CALM 0 0 0 0 - - 0.0
27/06:30am 16.6 17.0 11.3 71 2.9 CALM 0 0 0 0 - - 0.0
27/06:00am 17.1 17.6 11.6 70 3.0 CALM 0 0 0 0 - - 0.0
27/05:30am 17.7 18.2 11.7 68 3.3 CALM 0 0 0 0 - - 0.0
27/05:00am 18.4 18.9 11.7 65 3.7 CALM 0 2 0 1 - - 0.0
27/04:30am 17.5 17.7 12.0 70 3.0 SSW 2 9 1 5 - - 0.0
27/04:00am 17.9 18.4 11.7 67 3.4 CALM 0 0 0 0 - - 0.0
27/03:30am 17.9 18.4 11.7 67 3.4 CALM 0 0 0 0 - - 0.0
27/03:00am 18.4 18.9 11.5 64 3.8 CALM 0 0 0 0 - - 0.0
27/02:30am 19.8 19.8 11.3 58 4.7 ENE 2 4 1 2 - - 0.0
27/02:00am 19.5 20.1 11.8 61 4.3 CALM 0 0 0 0 - - 0.0
27/01:30am 19.9 20.3 11.1 57 4.9 CALM 0 0 0 0 - - 0.0
27/01:00am 21.3 20.7 10.5 50 5.9 NNE 4 6 2 3 - - 0.0
27/12:30am 21.3 20.8 10.8 51 5.8 SSW 4 6 2 3 - - 0.0
27/12:00am 22.7 21.2 10.5 46 6.8 S 9 9 5 5 - - 0.0
 
Date/Time
EDT
Temp
°C
App
Temp
°C
Dew
Point
°C
Rel
Hum
%
Delta-T
°C
Wind Press
QNH
hPa
Press
MSL
hPa
Rain since
9am
mm
Dir  Spd
km/h
Gust
km/h
Spd
kts
Gust
kts
26/11:30pm 23.7 21.9 10.7 44 7.3 SSE 11 13 6 7 - - 0.0
26/11:00pm 22.2 21.4 11.0 49 6.2 SSW 6 7 3 4 - - 0.0
26/10:30pm 23.8 22.1 9.8 41 7.7 S 9 9 5 5 - - 0.0
26/10:00pm 25.4 23.8 8.8 35 9.1 S 7 9 4 5 - - 0.0
26/09:30pm 26.2 24.3 7.7 31 9.9 S 7 9 4 5 - - 0.0
26/09:00pm 28.5 26.0 6.6 25 11.7 SSW 9 13 5 7 - - 0.0
26/08:30pm 30.0 27.1 6.6 23 12.6 SW 11 15 6 8 - - 0.0
26/08:00pm 31.4 29.1 5.8 20 13.7 SW 7 11 4 6 - - 0.0
26/07:30pm 33.0 29.3 4.7 17 15.0 SW 13 20 7 11 - - 0.0
26/07:00pm 33.6 30.6 6.0 18 15.0 SW 11 17 6 9 - - 0.0

Other formats

Comma delimited format used in spreadsheet applications
http://www.bom.gov.au/fwo/IDN60801/IDN60801.94944.axf

JavaScript Object Notation format (JSON) in row-major order
http://www.bom.gov.au/fwo/IDN60801/IDN60801.94944.json

Data quality

Most of these data are generated automatically and are frequently updated. Quality checks on data are not normally performed. It is possible for incorrect values to appear. Refer to information at About Latest Weather Observations and please check the disclaimer before using these data.